createdAt,value
2018-09-17T00:01:39.195Z,66.20
2018-09-17T00:04:09.450Z,67.17
2018-09-17T00:06:39.880Z,67.37
2018-09-17T00:09:12.522Z,64.63
2018-09-17T00:11:42.927Z,66.10
2018-09-17T00:14:13.375Z,65.77
2018-09-17T00:16:43.777Z,68.47
2018-09-17T00:19:14.431Z,64.93
2018-09-17T00:21:44.564Z,67.47
2018-09-17T00:24:15.131Z,65.87
2018-09-17T00:26:47.240Z,65.63
2018-09-17T00:29:19.411Z,66.13
2018-09-17T00:31:54.989Z,65.33
2018-09-17T00:34:25.170Z,63.93
2018-09-17T00:36:55.706Z,66.77
2018-09-17T00:39:26.316Z,64.50
2018-09-17T00:41:56.636Z,64.40
2018-09-17T00:44:27.728Z,66.77
2018-09-17T00:46:57.831Z,64.27
2018-09-17T00:49:29.466Z,67.03
2018-09-17T00:51:59.828Z,63.83
2018-09-17T00:54:30.518Z,66.07
2018-09-17T00:57:02.295Z,64.53
2018-09-17T00:59:33.575Z,65.47
2018-09-17T01:02:06.190Z,64.27
2018-09-17T01:04:36.256Z,64.50
2018-09-17T01:07:06.638Z,65.13
2018-09-17T01:09:43.784Z,64.30
2018-09-17T01:12:15.492Z,65.30
2018-09-17T01:14:46.370Z,61.90
2018-09-17T01:17:16.906Z,63.23
2018-09-17T01:19:47.001Z,65.63
2018-09-17T01:22:17.156Z,63.13
2018-09-17T01:24:47.488Z,66.40
2018-09-17T01:27:17.489Z,66.30
2018-09-17T01:29:47.559Z,66.40
2018-09-17T01:32:17.600Z,66.00
2018-09-17T01:34:48.487Z,68.27
2018-09-17T01:37:19.184Z,65.90
2018-09-17T01:39:49.502Z,67.53
2018-09-17T01:42:20.060Z,69.63
2018-09-17T01:44:50.946Z,68.53
2018-09-17T01:47:21.733Z,65.93
2018-09-17T01:49:51.758Z,66.27
2018-09-17T01:52:22.172Z,65.67
2018-09-17T01:54:53.463Z,65.43
2018-09-17T01:57:23.529Z,62.60
2018-09-17T01:59:54.213Z,63.73
2018-09-17T02:02:25.416Z,64.53
2018-09-17T02:04:55.705Z,66.77
2018-09-17T02:07:26.266Z,64.97
2018-09-17T02:09:56.449Z,64.57
2018-09-17T02:12:26.915Z,66.17
2018-09-17T02:14:57.506Z,65.70
2018-09-17T02:17:27.845Z,63.43
2018-09-17T02:19:57.844Z,65.03
2018-09-17T02:22:27.807Z,63.87
2018-09-17T02:25:00.078Z,63.17
2018-09-17T02:27:33.169Z,63.43
2018-09-17T02:30:04.985Z,63.93
2018-09-17T02:32:35.579Z,65.77
2018-09-17T02:35:05.691Z,64.67
2018-09-17T02:37:36.032Z,63.23
2018-09-17T02:40:10.440Z,65.70
2018-09-17T02:42:40.936Z,64.43
2018-09-17T02:45:11.564Z,67.73
2018-09-17T02:47:42.301Z,65.03
2018-09-17T02:50:12.303Z,64.30
2018-09-17T02:52:42.523Z,66.97
2018-09-17T02:55:13.775Z,64.77
2018-09-17T02:57:44.226Z,64.27
2018-09-17T03:00:14.424Z,67.50
2018-09-17T03:02:44.671Z,64.80
2018-09-17T03:05:16.038Z,63.80
2018-09-17T03:07:47.546Z,63.70
2018-09-17T03:10:17.772Z,64.03
2018-09-17T03:12:47.931Z,64.27
2018-09-17T03:15:34.491Z,64.63
2018-09-17T03:18:04.794Z,62.77
2018-09-17T03:20:34.958Z,64.93
2018-09-17T03:23:05.191Z,62.57
2018-09-17T03:25:35.335Z,64.43
2018-09-17T03:28:05.524Z,62.80
2018-09-17T03:30:35.704Z,61.70
2018-09-17T03:33:05.955Z,63.07
2018-09-17T03:35:35.844Z,62.33
2018-09-17T03:38:27.332Z,64.23
2018-09-17T03:40:58.425Z,62.13
2018-09-17T03:43:32.393Z,63.30
2018-09-17T03:46:02.504Z,61.17
2018-09-17T03:48:33.553Z,62.73
2018-09-17T03:51:05.208Z,59.97
2018-09-17T03:53:36.941Z,62.40
2018-09-17T03:56:07.835Z,60.90
2018-09-17T03:58:38.423Z,61.03
2018-09-17T04:01:08.873Z,62.60
2018-09-17T04:03:40.241Z,61.63
2018-09-17T04:06:10.623Z,63.17
2018-09-17T04:08:41.275Z,64.07
2018-09-17T04:11:11.230Z,63.77
2018-09-17T04:13:41.635Z,64.77
2018-09-17T04:16:11.960Z,66.33
2018-09-17T04:18:42.012Z,64.63
2018-09-17T04:21:13.140Z,64.90
2018-09-17T04:23:43.397Z,64.40
2018-09-17T04:26:13.909Z,65.50
2018-09-17T04:28:44.309Z,68.17
2018-09-17T04:31:14.533Z,66.00
2018-09-17T04:33:45.070Z,66.90
2018-09-17T04:36:15.210Z,64.27
2018-09-17T04:38:45.501Z,65.40
2018-09-17T04:41:15.855Z,68.07
2018-09-17T04:43:46.398Z,65.27
2018-09-17T04:46:16.606Z,66.80
2018-09-17T04:48:46.883Z,68.17
2018-09-17T04:51:17.031Z,69.70
2018-09-17T04:53:48.249Z,68.70
2018-09-17T04:56:20.733Z,68.40
2018-09-17T04:58:50.827Z,69.33
2018-09-17T05:01:21.545Z,71.10
2018-09-17T05:03:51.747Z,71.83
2018-09-17T05:06:22.855Z,67.53
2018-09-17T05:08:54.075Z,70.50
2018-09-17T05:11:24.937Z,69.10
2018-09-17T05:13:55.898Z,69.97
2018-09-17T05:16:26.381Z,69.27
2018-09-17T05:18:56.707Z,68.50
2018-09-17T05:21:27.787Z,69.93
2018-09-17T05:23:57.863Z,72.80
2018-09-17T05:26:28.071Z,69.57
2018-09-17T05:28:58.567Z,67.87
2018-09-17T05:31:29.502Z,70.10
2018-09-17T05:33:59.701Z,69.13
2018-09-17T05:36:30.585Z,70.43
2018-09-17T05:39:00.782Z,69.73
2018-09-17T05:41:31.710Z,68.03
2018-09-17T05:44:02.060Z,71.13
2018-09-17T05:46:32.334Z,68.83
2018-09-17T05:49:02.689Z,69.93
2018-09-17T05:51:32.738Z,69.03
2018-09-17T05:54:03.515Z,69.40
2018-09-17T05:56:34.943Z,67.27
2018-09-17T05:59:05.541Z,70.53
2018-09-17T06:01:35.872Z,66.60
2018-09-17T06:04:07.472Z,68.03
2018-09-17T06:06:37.849Z,70.13
2018-09-17T06:09:12.702Z,69.00
2018-09-17T06:11:43.818Z,69.30
2018-09-17T06:14:13.923Z,69.00
2018-09-17T06:16:45.088Z,69.87
2018-09-17T06:19:15.414Z,70.27
2018-09-17T06:21:46.424Z,67.83
2018-09-17T06:24:16.694Z,72.57
2018-09-17T06:26:47.896Z,69.20
2018-09-17T06:29:19.068Z,68.73
2018-09-17T06:31:49.283Z,71.77
2018-09-17T06:34:19.431Z,68.63
2018-09-17T06:36:49.706Z,70.40
2018-09-17T06:39:20.111Z,69.57
2018-09-17T06:41:50.470Z,69.83
2018-09-17T06:44:21.043Z,68.73
2018-09-17T06:46:51.220Z,67.57
2018-09-17T06:49:21.781Z,67.67
2018-09-17T06:51:51.884Z,69.83
2018-09-17T06:54:22.223Z,73.00
2018-09-17T06:56:52.890Z,67.33
2018-09-17T06:59:22.975Z,69.50
2018-09-17T07:01:53.345Z,73.20
2018-09-17T07:04:23.434Z,69.17
2018-09-17T07:06:53.552Z,69.57
2018-09-17T07:09:23.887Z,68.00
2018-09-17T07:11:54.011Z,68.90
2018-09-17T07:14:25.401Z,66.10
2018-09-17T07:16:55.737Z,67.20
2018-09-17T07:19:26.260Z,68.80
2018-09-17T07:21:57.124Z,71.50
2018-09-17T07:24:27.388Z,68.47
2018-09-17T07:26:58.503Z,67.97
2018-09-17T07:29:28.728Z,70.40
2018-09-17T07:31:58.792Z,70.33
2018-09-17T07:34:28.908Z,71.23
2018-09-17T07:37:00.581Z,70.47
2018-09-17T07:39:30.888Z,69.70
2018-09-17T07:42:01.496Z,76.93
2018-09-17T07:44:31.484Z,70.03
2018-09-17T07:47:01.980Z,68.57
2018-09-17T07:49:38.795Z,68.13
2018-09-17T07:52:09.501Z,69.57
2018-09-17T07:54:41.053Z,67.60
2018-09-17T07:57:11.732Z,71.10
2018-09-17T07:59:41.814Z,66.57
2018-09-17T08:02:12.340Z,67.60
2018-09-17T08:04:43.026Z,68.30
2018-09-17T08:07:13.274Z,68.87
2018-09-17T08:09:44.103Z,71.00
2018-09-17T08:12:14.328Z,67.40
2018-09-17T08:14:44.718Z,69.80
2018-09-17T08:17:15.011Z,69.90
2018-09-17T08:19:45.091Z,66.00
2018-09-17T08:22:16.620Z,70.33
2018-09-17T08:24:47.591Z,70.57
2018-09-17T08:27:17.627Z,69.23
2018-09-17T08:29:48.202Z,71.63
2018-09-17T08:32:18.546Z,72.57
2018-09-17T08:34:49.233Z,70.77
2018-09-17T08:37:19.821Z,70.67
2018-09-17T08:39:50.559Z,72.37
2018-09-17T08:42:20.818Z,71.10
2018-09-17T08:44:51.137Z,68.70
2018-09-17T08:47:27.786Z,72.30
2018-09-17T08:49:58.037Z,72.83
2018-09-17T08:52:29.045Z,70.17
2018-09-17T08:55:05.382Z,69.13
2018-09-17T08:57:41.303Z,68.87
2018-09-17T09:00:17.039Z,69.87
2018-09-17T09:02:51.957Z,69.50
2018-09-17T09:05:27.378Z,67.73
2018-09-17T09:07:57.929Z,69.83
2018-09-17T09:10:33.062Z,66.77
2018-09-17T09:13:08.181Z,70.77
2018-09-17T09:15:40.112Z,67.57
2018-09-17T09:18:10.806Z,68.07
2018-09-17T09:20:43.760Z,70.07
2018-09-17T09:23:13.740Z,70.87
2018-09-17T09:25:44.224Z,70.70
2018-09-17T09:28:14.383Z,69.63
2018-09-17T09:30:46.970Z,68.37
2018-09-17T09:33:17.865Z,69.23
2018-09-17T09:35:48.742Z,70.67
2018-09-17T09:38:18.998Z,69.83
2018-09-17T09:40:49.788Z,68.37
2018-09-17T09:43:19.981Z,69.83
2018-09-17T09:45:50.189Z,68.50
2018-09-17T09:48:20.568Z,70.67
2018-09-17T09:50:51.830Z,70.13
2018-09-17T09:53:22.036Z,67.87
2018-09-17T09:55:52.896Z,69.07
2018-09-17T09:58:24.211Z,67.23
2018-09-17T10:00:59.858Z,70.10
2018-09-17T10:03:34.518Z,71.40
2018-09-17T10:06:04.883Z,67.97
2018-09-17T10:08:39.691Z,71.17
2018-09-17T10:11:14.987Z,68.43
2018-09-17T10:13:50.435Z,71.30
2018-09-17T10:16:21.529Z,70.50
2018-09-17T10:18:56.955Z,71.53
2018-09-17T10:21:29.337Z,70.60
2018-09-17T10:24:00.664Z,69.17
2018-09-17T10:26:30.984Z,69.67
2018-09-17T10:29:01.050Z,71.03
2018-09-17T10:31:32.104Z,70.33
2018-09-17T10:34:02.012Z,70.97
2018-09-17T10:36:32.387Z,69.43
2018-09-17T10:39:02.568Z,71.67
2018-09-17T10:41:33.463Z,70.40
2018-09-17T10:44:04.000Z,71.40
2018-09-17T10:46:34.378Z,72.33
2018-09-17T10:49:04.666Z,73.80
2018-09-17T10:51:35.155Z,71.20
2018-09-17T10:54:05.321Z,73.07
2018-09-17T10:56:35.619Z,73.83
2018-09-17T10:59:05.953Z,69.17
2018-09-17T11:01:35.784Z,82.60
2018-09-17T11:04:09.641Z,71.07
2018-09-17T11:06:40.199Z,69.80
2018-09-17T11:09:12.595Z,70.63
2018-09-17T11:11:43.179Z,71.17
2018-09-17T11:14:13.368Z,69.13
2018-09-17T11:16:43.540Z,70.57
2018-09-17T11:19:13.796Z,72.33
2018-09-17T11:21:44.038Z,72.30
2018-09-17T11:24:14.580Z,71.10
2018-09-17T11:26:44.840Z,69.87
2018-09-17T11:29:15.126Z,68.63
2018-09-17T11:31:45.184Z,70.83
2018-09-17T11:34:18.314Z,72.23
2018-09-17T11:36:48.475Z,72.03
2018-09-17T11:39:19.400Z,71.43
2018-09-17T11:41:49.586Z,71.80
2018-09-17T11:44:19.579Z,70.57
2018-09-17T11:46:50.480Z,69.97
2018-09-17T11:49:20.844Z,69.57
2018-09-17T11:51:51.138Z,71.07
2018-09-17T11:54:21.372Z,71.53
2018-09-17T11:56:51.643Z,69.23
2018-09-17T11:59:22.257Z,68.20
2018-09-17T12:01:57.549Z,68.03
2018-09-17T12:04:32.081Z,69.73
2018-09-17T12:07:08.324Z,68.30
2018-09-17T12:09:39.566Z,70.27
2018-09-17T12:12:10.717Z,67.87
2018-09-17T12:14:41.124Z,72.10
2018-09-17T12:17:12.219Z,69.73
2018-09-17T12:19:42.521Z,69.87
2018-09-17T12:22:12.768Z,68.97
2018-09-17T12:24:43.155Z,68.97
2018-09-17T12:27:16.253Z,69.83
2018-09-17T12:29:46.979Z,70.70
2018-09-17T12:32:17.489Z,68.10
2018-09-17T12:34:47.393Z,71.67
2018-09-17T12:37:18.915Z,70.93
2018-09-17T12:39:49.372Z,71.17
2018-09-17T12:42:20.751Z,74.30
2018-09-17T12:44:51.204Z,72.77
2018-09-17T12:47:22.112Z,69.40
2018-09-17T12:49:52.520Z,72.40
2018-09-17T12:52:23.421Z,71.53
2018-09-17T12:54:53.778Z,69.60
2018-09-17T12:57:24.822Z,72.77
2018-09-17T12:59:55.974Z,71.97
2018-09-17T13:02:26.500Z,68.93
2018-09-17T13:04:56.587Z,71.87
2018-09-17T13:07:26.831Z,71.43
2018-09-17T13:09:57.387Z,75.87
2018-09-17T13:12:27.824Z,71.77
2018-09-17T13:14:58.407Z,69.67
2018-09-17T13:17:28.592Z,71.37
2018-09-17T13:19:59.690Z,70.00
2018-09-17T13:22:29.715Z,70.97
2018-09-17T13:25:00.394Z,71.70
2018-09-17T13:27:30.506Z,73.07
2018-09-17T13:30:00.677Z,73.47
2018-09-17T13:32:30.833Z,73.03
2018-09-17T13:35:01.161Z,71.10
2018-09-17T13:37:31.268Z,73.03
2018-09-17T13:40:01.505Z,71.70
2018-09-17T13:42:31.825Z,71.13
2018-09-17T13:45:02.523Z,70.57
2018-09-17T13:47:33.217Z,72.53
2018-09-17T13:50:03.421Z,71.17
2018-09-17T13:52:33.580Z,71.00
2018-09-17T13:55:04.129Z,72.07
2018-09-17T13:57:34.978Z,71.77
2018-09-17T14:00:05.678Z,69.10
2018-09-17T14:02:35.820Z,71.40
2018-09-17T14:05:06.236Z,73.00
2018-09-17T14:07:36.748Z,73.27
2018-09-17T14:10:07.964Z,72.23
2018-09-17T14:12:38.068Z,73.63
2018-09-17T14:15:08.381Z,72.37
2018-09-17T14:17:38.686Z,72.47
2018-09-17T14:20:08.798Z,70.60
2018-09-17T14:22:39.440Z,69.97
2018-09-17T14:25:10.746Z,72.40
2018-09-17T14:27:41.218Z,69.23
2018-09-17T14:30:13.108Z,72.50
2018-09-17T14:32:48.335Z,73.77
2018-09-17T14:35:18.721Z,74.83
2018-09-17T14:37:49.003Z,75.70
2018-09-17T14:40:19.291Z,72.40
2018-09-17T14:42:50.232Z,73.87
2018-09-17T14:45:20.353Z,77.40
2018-09-17T14:47:50.493Z,73.67
2018-09-17T14:50:21.134Z,75.40
2018-09-17T14:52:51.789Z,76.93
2018-09-17T14:55:22.560Z,76.00
2018-09-17T14:57:52.689Z,74.47
2018-09-17T15:00:25.972Z,77.90
2018-09-17T15:02:56.794Z,76.07
2018-09-17T15:05:26.965Z,78.40
2018-09-17T15:07:57.285Z,79.15
2018-09-17T15:10:27.439Z,78.67
2018-09-17T15:12:57.985Z,78.47
2018-09-17T15:15:28.174Z,77.67
2018-09-17T15:17:58.554Z,79.00
2018-09-17T15:20:28.850Z,82.97
2018-09-17T15:22:59.323Z,79.82
2018-09-17T15:25:29.485Z,80.65
2018-09-17T15:27:59.833Z,82.35
2018-09-17T15:30:30.241Z,79.47
2018-09-17T15:33:00.245Z,77.87
2018-09-17T15:35:30.676Z,80.03
2018-09-17T15:38:01.135Z,80.42
2018-09-17T15:40:31.957Z,79.40
2018-09-17T15:43:03.745Z,79.87
2018-09-17T15:45:33.955Z,79.03
2018-09-17T15:48:04.442Z,81.67
2018-09-17T15:50:34.836Z,82.10
2018-09-17T15:53:05.090Z,81.87
2018-09-17T15:55:35.123Z,80.70
2018-09-17T15:58:05.505Z,80.47
2018-09-17T16:00:35.520Z,81.30
2018-09-17T16:03:05.768Z,81.08
2018-09-17T16:05:36.095Z,81.67
2018-09-17T16:08:07.949Z,80.55
2018-09-17T16:10:38.558Z,81.67
2018-09-17T16:13:09.042Z,80.83
2018-09-17T16:15:39.416Z,81.32
2018-09-17T16:18:10.357Z,79.10
2018-09-17T16:20:40.573Z,78.28
2018-09-17T16:23:11.264Z,81.45
2018-09-17T16:25:43.589Z,83.05
2018-09-17T16:28:14.799Z,77.80
2018-09-17T16:30:46.511Z,80.32
2018-09-17T16:33:18.120Z,78.97
2018-09-17T16:35:49.207Z,82.72
2018-09-17T16:38:19.404Z,81.97
2018-09-17T16:40:49.471Z,80.50
2018-09-17T16:43:20.035Z,83.72
2018-09-17T16:45:50.243Z,83.10
2018-09-17T16:48:20.520Z,82.37
2018-09-17T16:50:50.791Z,83.35
2018-09-17T16:53:21.395Z,84.50
2018-09-17T16:55:52.141Z,80.60
2018-09-17T16:58:22.846Z,82.83
2018-09-17T17:00:53.343Z,81.50
2018-09-17T17:03:23.399Z,79.27
2018-09-17T17:05:53.790Z,79.90
2018-09-17T17:08:24.051Z,79.30
2018-09-17T17:10:54.609Z,82.57
2018-09-17T17:13:24.628Z,78.27
2018-09-17T17:15:55.924Z,80.70
2018-09-17T17:18:30.034Z,81.57
2018-09-17T17:21:00.289Z,81.30
2018-09-17T17:23:30.647Z,79.33
2018-09-17T17:26:00.882Z,80.40
2018-09-17T17:28:31.260Z,80.20
2018-09-17T17:31:03.448Z,79.67
2018-09-17T17:33:33.784Z,81.23
2018-09-17T17:36:03.896Z,81.80
2018-09-17T17:38:34.682Z,80.17
2018-09-17T17:41:05.583Z,79.27
2018-09-17T17:43:36.796Z,79.80
2018-09-17T17:46:08.762Z,76.07
2018-09-17T17:48:38.853Z,78.93
2018-09-17T17:51:09.299Z,82.30
2018-09-17T17:53:40.393Z,78.23
2018-09-17T17:56:11.213Z,78.47
2018-09-17T17:58:41.409Z,77.10
2018-09-17T18:01:12.205Z,78.47
2018-09-17T18:03:42.786Z,78.47
2018-09-17T18:06:14.409Z,79.67
2018-09-17T18:08:44.653Z,76.63
2018-09-17T18:11:14.960Z,77.27
2018-09-17T18:13:45.211Z,76.27
2018-09-17T18:16:15.211Z,74.13
2018-09-17T18:18:46.068Z,75.60
2018-09-17T18:21:16.369Z,73.93
2018-09-17T18:23:48.381Z,73.30
2018-09-17T18:26:18.850Z,73.90
2018-09-17T18:28:50.078Z,72.37
2018-09-17T18:31:20.989Z,71.33
2018-09-17T18:33:51.872Z,74.10
2018-09-17T18:36:23.608Z,70.17
2018-09-17T18:38:54.034Z,76.30
2018-09-17T18:41:24.231Z,73.07
2018-09-17T18:43:54.732Z,73.63
2018-09-17T18:46:26.695Z,71.20
2018-09-17T18:48:57.767Z,73.23
2018-09-17T18:51:27.706Z,72.33
2018-09-17T18:53:58.639Z,70.57
2018-09-17T18:56:28.816Z,70.80
2018-09-17T18:58:59.120Z,69.27
2018-09-17T19:01:29.012Z,77.03
2018-09-17T19:03:59.459Z,70.40
2018-09-17T19:06:29.799Z,73.67
2018-09-17T19:09:00.104Z,68.10
2018-09-17T19:11:30.823Z,66.50
2018-09-17T19:14:06.246Z,68.27
2018-09-17T19:16:55.959Z,73.77
2018-09-17T19:19:27.018Z,68.97
2018-09-17T19:22:03.810Z,69.00
2018-09-17T19:24:33.941Z,69.67
2018-09-17T19:27:04.966Z,68.70
2018-09-17T19:29:35.175Z,70.93
2018-09-17T19:32:06.965Z,69.73
2018-09-17T19:34:37.815Z,68.43
2018-09-17T19:37:13.352Z,69.93
2018-09-17T19:39:49.205Z,68.63
2018-09-17T19:42:21.085Z,68.63
2018-09-17T19:44:56.339Z,68.03
2018-09-17T19:47:26.791Z,73.47
2018-09-17T19:49:57.103Z,67.37
2018-09-17T19:52:28.705Z,68.80
2018-09-17T19:55:00.469Z,70.20
2018-09-17T19:57:35.810Z,66.57
2018-09-17T20:00:08.713Z,67.43
2018-09-17T20:02:39.650Z,69.83
2018-09-17T20:05:14.783Z,67.13
2018-09-17T20:07:45.951Z,69.77
2018-09-17T20:10:16.063Z,68.23
2018-09-17T20:12:46.583Z,66.73
2018-09-17T20:15:16.840Z,65.90
2018-09-17T20:17:47.331Z,68.70
2018-09-17T20:20:17.716Z,69.13
2018-09-17T20:22:49.386Z,66.73
2018-09-17T20:25:21.020Z,67.97
2018-09-17T20:27:53.302Z,68.40
2018-09-17T20:30:23.460Z,67.23
2018-09-17T20:32:57.673Z,70.83
2018-09-17T20:35:28.665Z,66.50
2018-09-17T20:37:58.923Z,66.40
2018-09-17T20:40:29.083Z,66.50
2018-09-17T20:42:59.392Z,67.27
2018-09-17T20:45:29.560Z,67.27
2018-09-17T20:48:01.440Z,67.83
2018-09-17T20:50:31.593Z,65.30
2018-09-17T20:53:01.708Z,65.47
2018-09-17T20:55:31.985Z,67.00
2018-09-17T20:58:02.583Z,66.67
2018-09-17T21:00:32.804Z,65.40
2018-09-17T21:03:05.038Z,66.20
2018-09-17T21:05:35.640Z,66.73
2018-09-17T21:08:07.276Z,65.63
2018-09-17T21:10:38.788Z,64.83
2018-09-17T21:13:09.832Z,65.23
2018-09-17T21:15:41.271Z,65.30
2018-09-17T21:18:13.254Z,66.20
2018-09-17T21:20:43.607Z,65.03
2018-09-17T21:23:13.463Z,66.17
2018-09-17T21:25:43.978Z,65.17
2018-09-17T21:28:15.297Z,64.70
2018-09-17T21:30:46.609Z,65.23
2018-09-17T21:33:18.041Z,62.43
2018-09-17T21:35:49.147Z,62.50
2018-09-17T21:38:19.683Z,63.90
2018-09-17T21:40:51.709Z,62.70
2018-09-17T21:43:23.629Z,64.43
2018-09-17T21:45:53.805Z,64.33
2018-09-17T21:48:24.217Z,64.63
2018-09-17T21:50:54.301Z,64.33
2018-09-17T21:53:24.825Z,65.67
2018-09-17T21:55:55.805Z,65.93
2018-09-17T21:58:25.854Z,64.77
2018-09-17T22:01:01.869Z,64.10
2018-09-17T22:03:33.958Z,66.53
2018-09-17T22:06:04.905Z,66.17
2018-09-17T22:08:40.964Z,62.93
2018-09-17T22:11:11.333Z,62.47
2018-09-17T22:13:41.637Z,63.93
2018-09-17T22:16:12.595Z,63.23
2018-09-17T22:18:43.779Z,62.47
2018-09-17T22:21:16.451Z,63.17
2018-09-17T22:23:47.100Z,64.70
2018-09-17T22:26:17.525Z,64.00
2018-09-17T22:28:47.764Z,62.60
2018-09-17T22:31:19.213Z,64.40
2018-09-17T22:33:49.836Z,63.40
2018-09-17T22:36:20.799Z,62.83
2018-09-17T22:38:51.088Z,63.13
2018-09-17T22:41:21.924Z,65.10
2018-09-17T22:43:52.000Z,64.23
2018-09-17T22:46:23.557Z,63.40
2018-09-17T22:48:54.557Z,64.00
2018-09-17T22:51:24.915Z,65.63
2018-09-17T22:53:55.221Z,63.57
2018-09-17T22:56:25.669Z,64.37
2018-09-17T22:58:55.931Z,63.47
2018-09-17T23:01:25.948Z,80.03
2018-09-17T23:03:56.984Z,63.03
2018-09-17T23:06:28.181Z,61.10
2018-09-17T23:08:58.836Z,62.73
2018-09-17T23:11:29.601Z,63.13
2018-09-17T23:13:59.971Z,62.73
2018-09-17T23:16:32.487Z,62.47
2018-09-17T23:19:02.655Z,61.53
2018-09-17T23:21:32.698Z,61.03
2018-09-17T23:24:03.250Z,64.07
2018-09-17T23:26:33.767Z,63.37
2018-09-17T23:29:04.637Z,62.93
2018-09-17T23:31:36.084Z,60.83
2018-09-17T23:34:06.714Z,65.50
2018-09-17T23:36:37.203Z,61.53
2018-09-17T23:39:12.262Z,63.60
2018-09-17T23:41:44.382Z,62.47
2018-09-17T23:44:14.807Z,62.97
2018-09-17T23:46:46.690Z,61.50
2018-09-17T23:49:17.889Z,63.60
2018-09-17T23:51:51.986Z,60.63
2018-09-17T23:54:25.435Z,60.57
2018-09-17T23:56:56.379Z,61.57
2018-09-17T23:59:26.949Z,61.73
